sensor_id;sensor_type;location;lat;lon;timestamp;pressure;altitude;pressure_sealevel;temperature;humidity
56074;BME280;41950;55.840;37.442;2023-04-25T00:00:23;99280.63;;;12.11;39.04
56074;BME280;41950;55.840;37.442;2023-04-25T00:02:49;99436.47;;;13.07;39.47
56074;BME280;41950;55.840;37.442;2023-04-25T00:05:14;99433.06;;;13.05;39.39
56074;BME280;41950;55.840;37.442;2023-04-25T00:07:41;99404.47;;;12.76;39.48
56074;BME280;41950;55.840;37.442;2023-04-25T00:10:09;99332.06;;;12.31;39.99
56074;BME280;41950;55.840;37.442;2023-04-25T00:12:37;99447.47;;;12.89;40.20
56074;BME280;41950;55.840;37.442;2023-04-25T00:15:03;99381.75;;;12.51;40.26
56074;BME280;41950;55.840;37.442;2023-04-25T00:17:32;99349.75;;;12.20;41.14
56074;BME280;41950;55.840;37.442;2023-04-25T00:19:58;99179.38;;;11.15;41.25
56074;BME280;41950;55.840;37.442;2023-04-25T00:22:24;99219.72;;;11.28;41.31
56074;BME280;41950;55.840;37.442;2023-04-25T00:24:50;99278.41;;;11.66;41.30
56074;BME280;41950;55.840;37.442;2023-04-25T00:27:16;99257.53;;;11.38;41.52
56074;BME280;41950;55.840;37.442;2023-04-25T00:29:41;99362.84;;;11.86;41.97
56074;BME280;41950;55.840;37.442;2023-04-25T00:32:07;99218.34;;;11.15;42.06
56074;BME280;41950;55.840;37.442;2023-04-25T00:34:33;99253.25;;;11.37;42.43
56074;BME280;41950;55.840;37.442;2023-04-25T00:36:59;99377.25;;;11.97;42.36
56074;BME280;41950;55.840;37.442;2023-04-25T00:39:27;99453.94;;;12.46;42.67
56074;BME280;41950;55.840;37.442;2023-04-25T00:41:54;99410.44;;;12.20;42.80
56074;BME280;41950;55.840;37.442;2023-04-25T00:44:20;99254.41;;;11.27;42.51
56074;BME280;41950;55.840;37.442;2023-04-25T00:46:50;99292.53;;;11.58;42.79
56074;BME280;41950;55.840;37.442;2023-04-25T00:49:16;99459.63;;;12.59;42.80
56074;BME280;41950;55.840;37.442;2023-04-25T00:51:43;99363.97;;;12.08;42.56
56074;BME280;41950;55.840;37.442;2023-04-25T00:54:12;99353.59;;;12.06;42.60
56074;BME280;41950;55.840;37.442;2023-04-25T00:56:39;99435.25;;;12.63;42.88
56074;BME280;41950;55.840;37.442;2023-04-25T00:59:05;99376.38;;;12.28;42.76
56074;BME280;41950;55.840;37.442;2023-04-25T01:01:31;99442.09;;;12.65;42.99
56074;BME280;41950;55.840;37.442;2023-04-25T01:03:58;99429.25;;;12.59;42.99
56074;BME280;41950;55.840;37.442;2023-04-25T01:06:24;99455.47;;;12.83;43.08
56074;BME280;41950;55.840;37.442;2023-04-25T01:08:51;99413.66;;;12.58;43.29
56074;BME280;41950;55.840;37.442;2023-04-25T01:11:17;99404.28;;;12.52;43.50
56074;BME280;41950;55.840;37.442;2023-04-25T01:13:43;99405.84;;;12.58;42.99
56074;BME280;41950;55.840;37.442;2023-04-25T01:16:09;99413.41;;;12.67;43.49
56074;BME280;41950;55.840;37.442;2023-04-25T01:18:36;99437.97;;;12.86;43.51
56074;BME280;41950;55.840;37.442;2023-04-25T01:21:11;99399.66;;;12.63;43.80
56074;BME280;41950;55.840;37.442;2023-04-25T01:23:41;99452.59;;;12.92;43.69
56074;BME280;41950;55.840;37.442;2023-04-25T01:26:11;99398.00;;;12.59;43.52
56074;BME280;41950;55.840;37.442;2023-04-25T01:28:38;99352.75;;;12.35;43.62
56074;BME280;41950;55.840;37.442;2023-04-25T01:31:07;99416.72;;;12.72;43.60
56074;BME280;41950;55.840;37.442;2023-04-25T01:33:33;99265.50;;;11.94;43.60
56074;BME280;41950;55.840;37.442;2023-04-25T01:35:59;99447.28;;;12.95;43.69
56074;BME280;41950;55.840;37.442;2023-04-25T01:38:25;99178.75;;;11.38;44.08
56074;BME280;41950;55.840;37.442;2023-04-25T01:40:51;99333.41;;;12.44;44.33
56074;BME280;41950;55.840;37.442;2023-04-25T01:43:17;99390.63;;;12.74;44.10
56074;BME280;41950;55.840;37.442;2023-04-25T01:45:43;99434.91;;;13.02;44.23
56074;BME280;41950;55.840;37.442;2023-04-25T01:48:10;99272.28;;;12.00;44.61
56074;BME280;41950;55.840;37.442;2023-04-25T01:50:38;99354.22;;;12.44;43.97
56074;BME280;41950;55.840;37.442;2023-04-25T01:53:09;99457.00;;;12.90;44.61
56074;BME280;41950;55.840;37.442;2023-04-25T01:55:35;99258.94;;;11.83;44.51
56074;BME280;41950;55.840;37.442;2023-04-25T01:58:02;99381.63;;;12.56;44.27
56074;BME280;41950;55.840;37.442;2023-04-25T02:00:28;99415.53;;;12.82;43.81
56074;BME280;41950;55.840;37.442;2023-04-25T02:02:53;99332.78;;;12.36;44.26
56074;BME280;41950;55.840;37.442;2023-04-25T02:05:22;99314.88;;;12.25;44.92
56074;BME280;41950;55.840;37.442;2023-04-25T02:07:48;99333.41;;;12.44;45.03
56074;BME280;41950;55.840;37.442;2023-04-25T02:10:14;99274.69;;;12.07;45.14
56074;BME280;41950;55.840;37.442;2023-04-25T02:12:40;99170.81;;;11.42;45.18
56074;BME280;41950;55.840;37.442;2023-04-25T02:15:07;99283.19;;;12.13;44.87
56074;BME280;41950;55.840;37.442;2023-04-25T02:17:33;99402.47;;;12.84;45.08
56074;BME280;41950;55.840;37.442;2023-04-25T02:19:59;99381.88;;;12.76;45.22
56074;BME280;41950;55.840;37.442;2023-04-25T02:22:25;99347.72;;;12.57;45.43
56074;BME280;41950;55.840;37.442;2023-04-25T02:24:53;99340.22;;;12.48;45.32
56074;BME280;41950;55.840;37.442;2023-04-25T02:27:19;99360.38;;;12.69;44.76
56074;BME280;41950;55.840;37.442;2023-04-25T02:29:44;99400.16;;;13.03;44.82
56074;BME280;41950;55.840;37.442;2023-04-25T02:32:10;99281.66;;;12.35;44.66
56074;BME280;41950;55.840;37.442;2023-04-25T02:34:36;99398.25;;;13.08;44.59
56074;BME280;41950;55.840;37.442;2023-04-25T02:37:02;99332.34;;;12.78;44.83
56074;BME280;41950;55.840;37.442;2023-04-25T02:39:28;99373.94;;;13.07;45.17
56074;BME280;41950;55.840;37.442;2023-04-25T02:41:54;99290.41;;;12.60;44.98
56074;BME280;41950;55.840;37.442;2023-04-25T02:44:20;99324.44;;;12.81;44.89
56074;BME280;41950;55.840;37.442;2023-04-25T02:46:45;99380.31;;;13.26;44.43
56074;BME280;41950;55.840;37.442;2023-04-25T02:49:11;99355.09;;;13.27;43.76
56074;BME280;41950;55.840;37.442;2023-04-25T02:51:37;99274.97;;;12.81;43.70
56074;BME280;41950;55.840;37.442;2023-04-25T02:54:02;99318.94;;;13.16;43.13
56074;BME280;41950;55.840;37.442;2023-04-25T02:56:28;99209.06;;;12.52;43.50
56074;BME280;41950;55.840;37.442;2023-04-25T02:58:54;99452.94;;;13.88;43.50
56074;BME280;41950;55.840;37.442;2023-04-25T03:01:20;99421.59;;;13.90;43.71
56074;BME280;41950;55.840;37.442;2023-04-25T03:03:46;99344.91;;;13.46;44.05
56074;BME280;41950;55.840;37.442;2023-04-25T03:06:12;99396.69;;;13.81;43.36
56074;BME280;41950;55.840;37.442;2023-04-25T03:08:38;99427.31;;;14.01;42.79
56074;BME280;41950;55.840;37.442;2023-04-25T03:11:03;99418.69;;;13.99;43.26
56074;BME280;41950;55.840;37.442;2023-04-25T03:13:29;99399.88;;;13.89;43.66
56074;BME280;41950;55.840;37.442;2023-04-25T03:15:55;99357.09;;;13.70;43.32
56074;BME280;41950;55.840;37.442;2023-04-25T03:18:21;99322.38;;;13.68;43.09
56074;BME280;41950;55.840;37.442;2023-04-25T03:20:47;99345.75;;;13.95;42.73
56074;BME280;41950;55.840;37.442;2023-04-25T03:23:12;99306.84;;;13.65;42.81
56074;BME280;41950;55.840;37.442;2023-04-25T03:25:38;99325.25;;;13.85;42.45
56074;BME280;41950;55.840;37.442;2023-04-25T03:28:04;99217.94;;;13.24;42.63
56074;BME280;41950;55.840;37.442;2023-04-25T03:30:30;99269.38;;;13.68;41.77
56074;BME280;41950;55.840;37.442;2023-04-25T03:32:56;99269.47;;;13.65;41.98
56074;BME280;41950;55.840;37.442;2023-04-25T03:35:21;99344.13;;;14.15;41.96
56074;BME280;41950;55.840;37.442;2023-04-25T03:37:49;99344.75;;;14.22;42.09
56074;BME280;41950;55.840;37.442;2023-04-25T03:40:15;99434.00;;;14.57;42.50
56074;BME280;41950;55.840;37.442;2023-04-25T03:42:40;99324.56;;;13.80;42.62
56074;BME280;41950;55.840;37.442;2023-04-25T03:45:07;99367.22;;;14.03;42.79
56074;BME280;41950;55.840;37.442;2023-04-25T03:47:33;99303.22;;;13.69;42.80
56074;BME280;41950;55.840;37.442;2023-04-25T03:49:58;99244.22;;;13.43;42.70
56074;BME280;41950;55.840;37.442;2023-04-25T03:52:29;99354.81;;;14.33;42.33
56074;BME280;41950;55.840;37.442;2023-04-25T03:54:55;99319.00;;;14.13;41.98
56074;BME280;41950;55.840;37.442;2023-04-25T03:57:21;99236.78;;;13.79;42.19
56074;BME280;41950;55.840;37.442;2023-04-25T03:59:46;99258.72;;;13.97;42.05
56074;BME280;41950;55.840;37.442;2023-04-25T04:02:13;99283.72;;;14.26;42.21
56074;BME280;41950;55.840;37.442;2023-04-25T04:04:39;99349.03;;;14.70;41.64
56074;BME280;41950;55.840;37.442;2023-04-25T04:07:06;99422.75;;;15.22;41.26
56074;BME280;41950;55.840;37.442;2023-04-25T04:09:31;99226.94;;;14.09;41.45
56074;BME280;41950;55.840;37.442;2023-04-25T04:11:57;99227.19;;;14.25;40.71
56074;BME280;41950;55.840;37.442;2023-04-25T04:14:23;99170.50;;;14.07;41.13
56074;BME280;41950;55.840;37.442;2023-04-25T04:16:50;99287.69;;;14.80;40.57
56074;BME280;41950;55.840;37.442;2023-04-25T04:19:16;99164.78;;;14.19;40.27
56074;BME280;41950;55.840;37.442;2023-04-25T04:21:42;99304.03;;;15.05;40.23
56074;BME280;41950;55.840;37.442;2023-04-25T04:24:10;99309.81;;;15.13;40.50
56074;BME280;41950;55.840;37.442;2023-04-25T04:26:36;99370.63;;;15.39;39.84
56074;BME280;41950;55.840;37.442;2023-04-25T04:29:02;99314.88;;;14.96;40.12
56074;BME280;41950;55.840;37.442;2023-04-25T04:31:29;99310.44;;;14.98;40.18
56074;BME280;41950;55.840;37.442;2023-04-25T04:33:55;99285.63;;;14.88;40.49
56074;BME280;41950;55.840;37.442;2023-04-25T04:36:23;99299.59;;;14.87;40.41
56074;BME280;41950;55.840;37.442;2023-04-25T04:38:49;99324.16;;;15.03;40.15
56074;BME280;41950;55.840;37.442;2023-04-25T04:41:15;99163.22;;;14.15;39.88
56074;BME280;41950;55.840;37.442;2023-04-25T04:43:41;99280.53;;;14.85;39.49
56074;BME280;41950;55.840;37.442;2023-04-25T04:46:07;99215.00;;;14.47;39.39
56074;BME280;41950;55.840;37.442;2023-04-25T04:48:33;99158.91;;;14.14;39.21
56074;BME280;41950;55.840;37.442;2023-04-25T04:50:59;99223.47;;;14.54;39.53
56074;BME280;41950;55.840;37.442;2023-04-25T04:53:26;99278.31;;;14.96;39.84
56074;BME280;41950;55.840;37.442;2023-04-25T04:55:52;99240.41;;;14.86;39.66
56074;BME280;41950;55.840;37.442;2023-04-25T04:58:18;99311.66;;;15.32;39.81
56074;BME280;41950;55.840;37.442;2023-04-25T05:00:44;99353.09;;;15.63;39.82
56074;BME280;41950;55.840;37.442;2023-04-25T05:03:10;99363.75;;;15.57;39.69
56074;BME280;41950;55.840;37.442;2023-04-25T05:05:36;99314.75;;;15.41;40.30
56074;BME280;41950;55.840;37.442;2023-04-25T05:08:06;99424.19;;;15.93;40.23
56074;BME280;41950;55.840;37.442;2023-04-25T05:10:31;99397.03;;;15.95;40.47
56074;BME280;41950;55.840;37.442;2023-04-25T05:12:57;99282.44;;;15.22;40.73
56074;BME280;41950;55.840;37.442;2023-04-25T05:15:23;99342.81;;;15.58;40.51
56074;BME280;41950;55.840;37.442;2023-04-25T05:17:49;99347.66;;;15.67;40.40
56074;BME280;41950;55.840;37.442;2023-04-25T05:20:15;99377.22;;;15.90;40.59
56074;BME280;41950;55.840;37.442;2023-04-25T05:22:41;99339.47;;;15.75;40.14
56074;BME280;41950;55.840;37.442;2023-04-25T05:25:10;99349.88;;;15.76;40.44
56074;BME280;41950;55.840;37.442;2023-04-25T05:27:36;99368.69;;;15.85;41.14
56074;BME280;41950;55.840;37.442;2023-04-25T05:30:02;99349.28;;;15.70;41.26
56074;BME280;41950;55.840;37.442;2023-04-25T05:32:30;99407.09;;;16.04;41.18
56074;BME280;41950;55.840;37.442;2023-04-25T05:34:55;99374.00;;;15.83;41.48
56074;BME280;41950;55.840;37.442;2023-04-25T05:37:21;99348.72;;;15.63;41.46
56074;BME280;41950;55.840;37.442;2023-04-25T05:39:47;99335.63;;;15.63;41.24
56074;BME280;41950;55.840;37.442;2023-04-25T05:42:13;99404.78;;;16.17;41.17
56074;BME280;41950;55.840;37.442;2023-04-25T05:44:39;99281.47;;;15.65;40.80
56074;BME280;41950;55.840;37.442;2023-04-25T05:47:05;99306.72;;;15.85;40.42
56074;BME280;41950;55.840;37.442;2023-04-25T05:49:31;99318.59;;;15.94;40.37
56074;BME280;41950;55.840;37.442;2023-04-25T05:51:57;99188.25;;;15.24;39.97
56074;BME280;41950;55.840;37.442;2023-04-25T05:54:22;99251.25;;;15.58;39.95
56074;BME280;41950;55.840;37.442;2023-04-25T05:56:48;99311.47;;;16.16;40.12
56074;BME280;41950;55.840;37.442;2023-04-25T05:59:14;99241.38;;;15.84;40.11
56074;BME280;41950;55.840;37.442;2023-04-25T06:01:40;99344.56;;;16.55;39.95
56074;BME280;41950;55.840;37.442;2023-04-25T06:04:13;99330.69;;;16.53;39.01
56074;BME280;41950;55.840;37.442;2023-04-25T06:06:38;99342.50;;;16.61;39.28
56074;BME280;41950;55.840;37.442;2023-04-25T06:09:04;99361.00;;;16.77;39.25
56074;BME280;41950;55.840;37.442;2023-04-25T06:11:30;99355.47;;;16.83;38.71
56074;BME280;41950;55.840;37.442;2023-04-25T06:13:56;99342.44;;;16.82;38.87
56074;BME280;41950;55.840;37.442;2023-04-25T06:16:22;99350.00;;;16.88;39.03
56074;BME280;41950;55.840;37.442;2023-04-25T06:18:50;99376.50;;;17.18;38.48
56074;BME280;41950;55.840;37.442;2023-04-25T06:21:15;99317.31;;;16.95;38.30
56074;BME280;41950;55.840;37.442;2023-04-25T06:23:41;99368.66;;;17.35;38.07
56074;BME280;41950;55.840;37.442;2023-04-25T06:26:07;99341.31;;;17.22;37.21
56074;BME280;41950;55.840;37.442;2023-04-25T06:28:32;99347.41;;;17.22;37.06
56074;BME280;41950;55.840;37.442;2023-04-25T06:30:58;99294.66;;;16.94;36.06
56074;BME280;41950;55.840;37.442;2023-04-25T06:33:24;99363.25;;;17.38;35.88
56074;BME280;41950;55.840;37.442;2023-04-25T06:35:50;99324.06;;;17.18;36.08
56074;BME280;41950;55.840;37.442;2023-04-25T06:38:16;99359.69;;;17.39;36.68
56074;BME280;41950;55.840;37.442;2023-04-25T06:40:41;99323.75;;;17.24;36.79
56074;BME280;41950;55.840;37.442;2023-04-25T06:43:07;99317.56;;;17.25;37.12
56074;BME280;41950;55.840;37.442;2023-04-25T06:45:33;99312.47;;;17.39;36.07
56074;BME280;41950;55.840;37.442;2023-04-25T06:47:59;99327.28;;;17.57;35.22
56074;BME280;41950;55.840;37.442;2023-04-25T06:50:24;99363.41;;;17.87;34.67
56074;BME280;41950;55.840;37.442;2023-04-25T06:52:50;99305.22;;;17.61;35.01
56074;BME280;41950;55.840;37.442;2023-04-25T06:55:16;99342.16;;;17.91;34.70
56074;BME280;41950;55.840;37.442;2023-04-25T06:57:41;99278.88;;;17.63;35.12
56074;BME280;41950;55.840;37.442;2023-04-25T07:00:08;99247.19;;;17.50;34.26
56074;BME280;41950;55.840;37.442;2023-04-25T07:02:35;99308.44;;;17.84;34.55
56074;BME280;41950;55.840;37.442;2023-04-25T07:05:02;99317.44;;;17.96;34.34
56074;BME280;41950;55.840;37.442;2023-04-25T07:07:30;99353.59;;;18.23;33.95
56074;BME280;41950;55.840;37.442;2023-04-25T07:09:56;99325.66;;;18.05;33.31
56074;BME280;41950;55.840;37.442;2023-04-25T07:12:22;99250.78;;;17.65;33.16
56074;BME280;41950;55.840;37.442;2023-04-25T07:14:47;99333.50;;;18.22;33.51
56074;BME280;41950;55.840;37.442;2023-04-25T07:17:13;99330.69;;;18.26;33.52
56074;BME280;41950;55.840;37.442;2023-04-25T07:19:39;99281.34;;;17.99;32.62
56074;BME280;41950;55.840;37.442;2023-04-25T07:22:06;99289.94;;;18.18;32.25
56074;BME280;41950;55.840;37.442;2023-04-25T07:24:32;99200.84;;;17.67;32.27
56074;BME280;41950;55.840;37.442;2023-04-25T07:26:58;99356.19;;;18.72;32.21
56074;BME280;41950;55.840;37.442;2023-04-25T07:29:24;99323.75;;;18.56;32.07
56074;BME280;41950;55.840;37.442;2023-04-25T07:31:50;99297.81;;;18.34;31.64
56074;BME280;41950;55.840;37.442;2023-04-25T07:34:15;99203.03;;;17.91;30.87
56074;BME280;41950;55.840;37.442;2023-04-25T07:36:44;99225.47;;;17.97;30.69
56074;BME280;41950;55.840;37.442;2023-04-25T07:39:10;99120.06;;;17.40;30.73
56074;BME280;41950;55.840;37.442;2023-04-25T07:41:36;99286.16;;;18.40;30.90
56074;BME280;41950;55.840;37.442;2023-04-25T07:44:01;99204.28;;;17.84;31.00
56074;BME280;41950;55.840;37.442;2023-04-25T07:46:27;99213.59;;;17.90;31.66
56074;BME280;41950;55.840;37.442;2023-04-25T07:48:53;99322.56;;;18.62;31.46
56074;BME280;41950;55.840;37.442;2023-04-25T07:51:19;99198.69;;;18.06;31.21
56074;BME280;41950;55.840;37.442;2023-04-25T07:53:46;99360.97;;;19.11;31.28
56074;BME280;41950;55.840;37.442;2023-04-25T07:56:12;99208.50;;;18.34;31.53
56074;BME280;41950;55.840;37.442;2023-04-25T07:58:37;99241.44;;;18.56;31.18
56074;BME280;41950;55.840;37.442;2023-04-25T08:01:03;99168.94;;;18.21;31.65
56074;BME280;41950;55.840;37.442;2023-04-25T08:03:29;99116.38;;;17.91;31.15
56074;BME280;41950;55.840;37.442;2023-04-25T08:05:55;99246.75;;;18.86;31.58
56074;BME280;41950;55.840;37.442;2023-04-25T08:08:21;99339.50;;;19.49;31.15
56074;BME280;41950;55.840;37.442;2023-04-25T08:10:47;99274.31;;;18.94;31.37
56074;BME280;41950;55.840;37.442;2023-04-25T08:13:13;99330.88;;;19.01;31.64
56074;BME280;41950;55.840;37.442;2023-04-25T08:15:39;99232.41;;;18.45;31.88
56074;BME280;41950;55.840;37.442;2023-04-25T08:18:05;99166.47;;;18.34;32.16
56074;BME280;41950;55.840;37.442;2023-04-25T08:20:31;99265.06;;;19.17;31.34
56074;BME280;41950;55.840;37.442;2023-04-25T08:22:57;99193.03;;;18.75;31.32
56074;BME280;41950;55.840;37.442;2023-04-25T08:25:27;99108.72;;;18.03;31.51
56074;BME280;41950;55.840;37.442;2023-04-25T08:27:52;99342.72;;;19.24;32.25
56074;BME280;41950;55.840;37.442;2023-04-25T08:30:18;99249.47;;;18.84;31.76
56074;BME280;41950;55.840;37.442;2023-04-25T08:32:44;99209.00;;;18.87;31.99
56074;BME280;41950;55.840;37.442;2023-04-25T08:35:10;99142.41;;;18.56;31.69
56074;BME280;41950;55.840;37.442;2023-04-25T08:37:36;99271.44;;;19.13;31.54
56074;BME280;41950;55.840;37.442;2023-04-25T08:40:03;99326.00;;;19.39;30.85
56074;BME280;41950;55.840;37.442;2023-04-25T08:42:33;99337.38;;;19.40;31.25
56074;BME280;41950;55.840;37.442;2023-04-25T08:45:02;99251.34;;;18.82;31.05
56074;BME280;41950;55.840;37.442;2023-04-25T08:47:33;99220.81;;;18.79;30.93
56074;BME280;41950;55.840;37.442;2023-04-25T08:50:02;99204.75;;;18.70;30.99
56074;BME280;41950;55.840;37.442;2023-04-25T08:52:35;99159.66;;;18.46;31.28
56074;BME280;41950;55.840;37.442;2023-04-25T08:55:01;99152.91;;;18.26;31.67
56074;BME280;41950;55.840;37.442;2023-04-25T08:57:31;99142.59;;;18.23;31.99
56074;BME280;41950;55.840;37.442;2023-04-25T08:59:57;99216.81;;;18.88;32.18
56074;BME280;41950;55.840;37.442;2023-04-25T09:02:27;99176.84;;;18.97;31.80
56074;BME280;41950;55.840;37.442;2023-04-25T09:04:56;99145.47;;;19.08;30.86
56074;BME280;41950;55.840;37.442;2023-04-25T09:07:22;99222.44;;;19.97;30.06
56074;BME280;41950;55.840;37.442;2023-04-25T09:09:48;99307.19;;;20.74;29.20
56074;BME280;41950;55.840;37.442;2023-04-25T09:12:14;99285.88;;;20.77;29.17
56074;BME280;41950;55.840;37.442;2023-04-25T09:14:40;99155.53;;;20.14;28.94
56074;BME280;41950;55.840;37.442;2023-04-25T09:17:07;99246.22;;;20.65;30.12
56074;BME280;41950;55.840;37.442;2023-04-25T09:19:36;99150.22;;;19.87;30.02
56074;BME280;41950;55.840;37.442;2023-04-25T09:22:04;99133.53;;;19.74;30.41
56074;BME280;41950;55.840;37.442;2023-04-25T09:24:41;99272.25;;;20.43;29.36
56074;BME280;41950;55.840;37.442;2023-04-25T09:27:12;99273.03;;;20.31;29.40
56074;BME280;41950;55.840;37.442;2023-04-25T09:29:40;99292.94;;;20.49;30.06
56074;BME280;41950;55.840;37.442;2023-04-25T09:32:21;99260.00;;;20.56;29.59
56074;BME280;41950;55.840;37.442;2023-04-25T09:34:57;99213.16;;;20.33;28.96
56074;BME280;41950;55.840;37.442;2023-04-25T09:37:28;99275.66;;;20.72;29.15
56074;BME280;41950;55.840;37.442;2023-04-25T09:42:25;99206.97;;;20.20;30.38
56074;BME280;41950;55.840;37.442;2023-04-25T09:44:52;99230.94;;;20.44;30.69
56074;BME280;41950;55.840;37.442;2023-04-25T09:47:19;99259.13;;;20.83;30.44
56074;BME280;41950;55.840;37.442;2023-04-25T09:49:47;99195.06;;;20.41;30.67
56074;BME280;41950;55.840;37.442;2023-04-25T09:52:15;99128.28;;;20.28;30.05
56074;BME280;41950;55.840;37.442;2023-04-25T09:54:42;99208.19;;;20.82;30.19
56074;BME280;41950;55.840;37.442;2023-04-25T09:57:16;99219.50;;;21.22;29.27
56074;BME280;41950;55.840;37.442;2023-04-25T09:59:44;99132.94;;;21.02;28.22
56074;BME280;41950;55.840;37.442;2023-04-25T10:02:11;99258.88;;;22.27;28.05
56074;BME280;41950;55.840;37.442;2023-04-25T10:04:41;99084.50;;;21.78;27.04
56074;BME280;41950;55.840;37.442;2023-04-25T10:07:13;99098.47;;;22.28;27.19
56074;BME280;41950;55.840;37.442;2023-04-25T10:09:39;99057.28;;;22.12;27.56
56074;BME280;41950;55.840;37.442;2023-04-25T10:12:07;99167.56;;;22.93;27.44
56074;BME280;41950;55.840;37.442;2023-04-25T10:14:34;99239.56;;;23.56;26.09
56074;BME280;41950;55.840;37.442;2023-04-25T10:17:00;99108.59;;;22.45;26.48
56074;BME280;41950;55.840;37.442;2023-04-25T10:19:27;99255.69;;;22.59;26.88
56074;BME280;41950;55.840;37.442;2023-04-25T10:22:03;99173.28;;;21.68;28.14
56074;BME280;41950;55.840;37.442;2023-04-25T10:24:30;99253.50;;;21.90;28.64
56074;BME280;41950;55.840;37.442;2023-04-25T10:26:56;99197.75;;;21.82;27.38
56074;BME280;41950;55.840;37.442;2023-04-25T10:29:24;99214.69;;;22.16;26.70
56074;BME280;41950;55.840;37.442;2023-04-25T10:31:50;99188.63;;;22.71;26.60
56074;BME280;41950;55.840;37.442;2023-04-25T10:34:17;99233.41;;;23.78;26.22
56074;BME280;41950;55.840;37.442;2023-04-25T10:36:43;99175.91;;;24.12;25.59
56074;BME280;41950;55.840;37.442;2023-04-25T10:39:14;99231.16;;;24.82;24.53
56074;BME280;41950;55.840;37.442;2023-04-25T10:41:47;99231.09;;;24.72;24.27
56074;BME280;41950;55.840;37.442;2023-04-25T10:44:15;99210.59;;;24.95;24.08
56074;BME280;41950;55.840;37.442;2023-04-25T10:46:41;99153.41;;;24.91;23.59
56074;BME280;41950;55.840;37.442;2023-04-25T10:49:09;99193.13;;;25.34;23.75
56074;BME280;41950;55.840;37.442;2023-04-25T10:51:37;99161.84;;;25.17;24.37
56074;BME280;41950;55.840;37.442;2023-04-25T10:54:07;99146.25;;;25.03;24.44
56074;BME280;41950;55.840;37.442;2023-04-25T10:56:38;99200.09;;;25.35;24.14
56074;BME280;41950;55.840;37.442;2023-04-25T11:01:38;99107.25;;;24.82;23.09
56074;BME280;41950;55.840;37.442;2023-04-25T11:04:04;99103.69;;;25.14;23.01
56074;BME280;41950;55.840;37.442;2023-04-25T11:09:14;99012.00;;;24.38;23.18
56074;BME280;41950;55.840;37.442;2023-04-25T11:11:39;99044.81;;;24.57;23.85
56074;BME280;41950;55.840;37.442;2023-04-25T11:14:05;99078.19;;;25.02;22.97
56074;BME280;41950;55.840;37.442;2023-04-25T11:16:31;99176.97;;;25.77;21.97
56074;BME280;41950;55.840;37.442;2023-04-25T11:18:58;99173.19;;;26.30;22.08
56074;BME280;41950;55.840;37.442;2023-04-25T11:21:27;99186.09;;;26.54;22.00
56074;BME280;41950;55.840;37.442;2023-04-25T11:23:54;99078.94;;;26.03;21.17
56074;BME280;41950;55.840;37.442;2023-04-25T11:26:22;99173.03;;;26.31;22.03
56074;BME280;41950;55.840;37.442;2023-04-25T11:28:49;98988.09;;;25.10;21.98
56074;BME280;41950;55.840;37.442;2023-04-25T11:31:15;99027.06;;;25.00;21.64
56074;BME280;41950;55.840;37.442;2023-04-25T11:33:41;99080.63;;;25.14;22.11
56074;BME280;41950;55.840;37.442;2023-04-25T11:36:08;98952.94;;;24.35;21.85
56074;BME280;41950;55.840;37.442;2023-04-25T11:38:35;99101.38;;;25.00;21.71
56074;BME280;41950;55.840;37.442;2023-04-25T11:41:00;99092.69;;;24.98;22.51
56074;BME280;41950;55.840;37.442;2023-04-25T11:43:26;99088.84;;;24.90;22.64
56074;BME280;41950;55.840;37.442;2023-04-25T11:45:52;99077.09;;;24.83;23.67
56074;BME280;41950;55.840;37.442;2023-04-25T11:48:19;98999.78;;;24.46;23.26
56074;BME280;41950;55.840;37.442;2023-04-25T11:50:45;99108.66;;;24.86;23.16
56074;BME280;41950;55.840;37.442;2023-04-25T11:53:11;99080.59;;;24.84;22.50
56074;BME280;41950;55.840;37.442;2023-04-25T11:55:37;99089.53;;;25.04;22.34
56074;BME280;41950;55.840;37.442;2023-04-25T11:58:04;98985.66;;;24.67;21.74
56074;BME280;41950;55.840;37.442;2023-04-25T12:00:30;98947.25;;;24.19;22.51
56074;BME280;41950;55.840;37.442;2023-04-25T12:02:57;98909.88;;;24.01;21.88
56074;BME280;41950;55.840;37.442;2023-04-25T12:05:25;98938.59;;;24.17;22.00
56074;BME280;41950;55.840;37.442;2023-04-25T12:07:52;98961.75;;;24.36;21.14
56074;BME280;41950;55.840;37.442;2023-04-25T12:10:18;98964.88;;;24.41;21.17
56074;BME280;41950;55.840;37.442;2023-04-25T12:12:46;99055.59;;;25.07;20.42
56074;BME280;41950;55.840;37.442;2023-04-25T12:15:17;98908.63;;;24.47;20.52
56074;BME280;41950;55.840;37.442;2023-04-25T12:17:46;98996.78;;;24.60;21.58
56074;BME280;41950;55.840;37.442;2023-04-25T12:20:20;98928.22;;;23.72;21.77
56074;BME280;41950;55.840;37.442;2023-04-25T12:22:49;99076.34;;;23.87;22.97
56074;BME280;41950;55.840;37.442;2023-04-25T12:25:41;99069.06;;;23.23;23.80
56074;BME280;41950;55.840;37.442;2023-04-25T12:31:02;99091.91;;;22.91;25.22
56074;BME280;41950;55.840;37.442;2023-04-25T12:33:31;99090.97;;;23.03;24.75
56074;BME280;41950;55.840;37.442;2023-04-25T12:35:58;99067.47;;;22.76;24.66
56074;BME280;41950;55.840;37.442;2023-04-25T12:38:25;99047.78;;;22.45;25.03
56074;BME280;41950;55.840;37.442;2023-04-25T12:40:52;99076.53;;;22.49;25.63
56074;BME280;41950;55.840;37.442;2023-04-25T12:43:18;99077.34;;;22.39;26.14
56074;BME280;41950;55.840;37.442;2023-04-25T12:45:44;99073.25;;;22.35;26.67
56074;BME280;41950;55.840;37.442;2023-04-25T12:48:10;99055.09;;;22.30;26.65
56074;BME280;41950;55.840;37.442;2023-04-25T12:50:36;99013.44;;;22.10;26.16
56074;BME280;41950;55.840;37.442;2023-04-25T12:53:02;99008.66;;;22.15;26.66
56074;BME280;41950;55.840;37.442;2023-04-25T12:55:28;99060.13;;;22.33;26.87
56074;BME280;41950;55.840;37.442;2023-04-25T12:57:53;98991.44;;;21.74;27.19